Time;durP1;ratioP1;P1;durP2;ratioP2;P2;SDS_P1;SDS_P2;PMS_P1;PMS_P2;Temp;Humidity;BMP_temperature;BMP_pressure;BME280_temperature;BME280_humidity;BME280_pressure;Samples;Min_cycle;Max_cycle;Signal;HPM_P1;HPM_P2
2022/01/24 00:02:47;;;;;;;2.22;0.93;;;9.70;73.20;;;;;;20688097;28;20033;-75
2022/01/24 00:13:03;;;;;;;2.92;0.93;;;9.70;73.20;;;;;;20707420;28;20030;-75
2022/01/24 00:33:24;;;;;;;1.83;1.15;;;9.70;73.20;;;;;;20740565;28;20033;-74
2022/01/24 00:43:34;;;;;;;1.55;0.80;;;9.70;73.20;;;;;;20719920;28;20072;-74
2022/01/24 00:53:50;;;;;;;1.70;0.93;;;9.70;73.20;;;;;;20737214;28;20095;-74
2022/01/24 01:03:50;;;;;;;1.65;0.90;;;9.70;73.20;;;;;;20724124;28;20034;-75
2022/01/24 01:24:10;;;;;;;2.05;1.00;;;9.70;73.10;;;;;;20722810;28;20380;-75
2022/01/24 01:34:32;;;;;;;1.30;0.88;;;9.70;73.10;;;;;;20701151;28;20060;-74
2022/01/24 01:54:56;;;;;;;2.03;0.95;;;9.70;73.10;;;;;;20719558;28;20490;-74
2022/01/24 02:04:56;;;;;;;2.05;1.10;;;9.70;73.10;;;;;;20731751;28;20030;-75
2022/01/24 02:14:59;;;;;;;1.77;0.88;;;9.70;73.10;;;;;;20695840;28;20044;-76
2022/01/24 02:25:06;;;;;;;1.20;0.80;;;9.70;73.10;;;;;;20728689;28;20456;-75
2022/01/24 02:35:07;;;;;;;;;;;9.70;73.10;;;;;;20714716;28;20412;-74
2022/01/24 02:55:28;;;;;;;3.70;0.90;;;9.70;73.10;;;;;;20716544;28;20475;-77
2022/01/24 03:05:29;;;;;;;2.63;0.88;;;9.70;73.10;;;;;;20726421;28;20034;-76
2022/01/24 03:15:29;;;;;;;3.60;0.73;;;9.70;73.10;;;;;;20710580;28;20123;-75
2022/01/24 03:25:30;;;;;;;2.03;0.98;;;9.70;73.10;;;;;;20743925;28;20687;-74
2022/01/24 03:35:31;;;;;;;1.08;0.63;;;9.70;73.10;;;;;;20726346;28;20615;-74
2022/01/24 03:45:42;;;;;;;1.98;1.17;;;9.70;73.10;;;;;;20710389;28;20069;-76
2022/01/24 03:55:42;;;;;;;1.73;0.90;;;9.70;73.10;;;;;;20711972;28;20045;-75
2022/01/24 04:05:43;;;;;;;1.60;1.02;;;9.70;73.10;;;;;;20708537;28;20152;-74
2022/01/24 04:15:56;;;;;;;1.85;1.30;;;9.70;73.10;;;;;;20728376;28;20042;-74
2022/01/24 04:25:59;;;;;;;0.90;0.52;;;9.70;73.10;;;;;;20739970;28;20488;-74
2022/01/24 04:35:59;;;;;;;1.10;0.65;;;9.70;73.10;;;;;;20560191;28;20106;-75
2022/01/24 04:46:17;;;;;;;0.85;0.70;;;9.70;73.10;;;;;;20575469;28;20047;-75
2022/01/24 04:56:17;;;;;;;1.88;1.10;;;9.70;73.10;;;;;;20579532;28;20054;-75
2022/01/24 05:06:18;;;;;;;1.58;0.93;;;9.60;73.00;;;;;;20573915;28;20149;-75
2022/01/24 05:26:37;;;;;;;3.80;1.58;;;9.60;73.00;;;;;;20574372;28;20305;-75
2022/01/24 05:36:38;;;;;;;3.70;1.52;;;9.70;73.10;;;;;;20555850;28;20035;-75
2022/01/24 05:46:39;;;;;;;4.18;1.92;;;9.60;73.00;;;;;;20620040;28;20151;-81
2022/01/24 05:56:39;;;;;;;2.43;1.53;;;9.70;73.10;;;;;;20635565;28;20497;-83
2022/01/24 06:06:40;;;;;;;2.67;1.42;;;9.70;73.10;;;;;;20645740;28;20312;-87
2022/01/24 06:16:44;;;;;;;3.53;1.75;;;9.70;73.10;;;;;;20681949;28;20321;-80
2022/01/24 06:26:46;;;;;;;7.85;1.50;;;9.60;73.00;;;;;;20692467;28;20038;-74
2022/01/24 06:36:47;;;;;;;2.95;1.50;;;9.60;73.00;;;;;;20693124;28;20092;-76
2022/01/24 06:46:47;;;;;;;5.22;1.35;;;9.60;73.10;;;;;;20712314;28;20481;-77
2022/01/24 06:56:48;;;;;;;3.75;1.75;;;9.70;73.10;;;;;;20687408;28;20133;-79
2022/01/24 07:06:49;;;;;;;2.35;1.42;;;9.60;73.00;;;;;;20634798;28;20038;-79
2022/01/24 07:27:00;;;;;;;3.33;1.58;;;9.60;73.10;;;;;;20646341;28;20378;-79
2022/01/24 07:37:02;;;;;;;2.40;1.23;;;9.60;73.00;;;;;;20701159;28;20031;-78
2022/01/24 07:47:04;;;;;;;3.40;1.65;;;9.60;73.00;;;;;;20645274;28;20041;-78
2022/01/24 07:57:04;;;;;;;2.83;1.50;;;9.60;73.00;;;;;;20640810;28;20509;-77
2022/01/24 08:07:05;;;;;;;2.13;1.27;;;9.60;73.00;;;;;;20642183;28;20169;-80
2022/01/24 08:17:05;;;;;;;2.08;1.30;;;9.60;73.00;;;;;;20658201;28;20374;-75
2022/01/24 08:27:06;;;;;;;2.95;1.40;;;9.60;73.00;;;;;;20674172;28;20124;-75
2022/01/24 08:37:06;;;;;;;2.40;1.40;;;9.60;73.00;;;;;;20690879;28;20476;-76
2022/01/24 08:47:08;;;;;;;1.83;1.05;;;9.60;73.00;;;;;;20721691;28;20392;-73
2022/01/24 08:57:09;;;;;;;3.03;1.45;;;9.60;73.00;;;;;;20695224;28;20044;-77
2022/01/24 09:07:10;;;;;;;2.88;1.60;;;9.60;73.00;;;;;;20644788;28;20181;-76
2022/01/24 09:17:11;;;;;;;2.67;1.27;;;9.60;73.00;;;;;;20655630;28;20045;-75
2022/01/24 09:27:11;;;;;;;1.98;1.00;;;9.60;72.90;;;;;;20637465;28;20437;-76
2022/01/24 09:37:12;;;;;;;2.10;1.17;;;9.60;72.90;;;;;;20702406;28;20068;-74
2022/01/24 09:47:15;;;;;;;2.42;1.30;;;9.60;72.90;;;;;;20717419;28;20054;-83
2022/01/24 09:57:16;;;;;;;2.13;1.48;;;9.60;72.90;;;;;;20670626;28;20034;-82
2022/01/24 10:07:17;;;;;;;2.47;1.20;;;9.60;72.90;;;;;;20656316;28;20050;-81
2022/01/24 10:17:18;;;;;;;4.03;1.60;;;9.60;73.00;;;;;;20649666;28;20470;-80
2022/01/24 10:27:27;;;;;;;2.75;1.55;;;9.60;73.00;;;;;;20648058;28;20301;-80
2022/01/24 10:37:28;;;;;;;2.55;1.20;;;9.70;73.00;;;;;;20619121;28;20125;-81
2022/01/24 10:47:31;;;;;;;3.55;1.20;;;9.60;73.00;;;;;;20664718;28;20032;-78
2022/01/24 10:57:32;;;;;;;3.67;2.05;;;9.60;73.00;;;;;;20646331;28;20061;-81
2022/01/24 11:07:47;;;;;;;2.13;1.20;;;9.60;73.00;;;;;;20652685;28;20043;-76
2022/01/24 11:17:48;;;;;;;2.38;1.38;;;9.60;73.00;;;;;;20615681;28;20030;-77
2022/01/24 11:27:49;;;;;;;2.13;1.23;;;9.60;73.00;;;;;;20653275;28;20439;-77
2022/01/24 11:37:49;;;;;;;2.63;1.10;;;9.60;73.00;;;;;;20626322;28;20305;-80
2022/01/24 11:47:53;;;;;;;2.10;0.90;;;9.70;73.00;;;;;;21062790;23;20317;-77
2022/01/24 11:57:58;;;;;;;4.00;1.50;;;9.60;73.00;;;;;;20649229;28;20042;-79
2022/01/24 12:08:00;;;;;;;3.83;1.70;;;9.60;73.00;;;;;;20647554;28;20038;-79
2022/01/24 12:18:02;;;;;;;2.70;1.00;;;9.60;73.00;;;;;;20628925;28;20088;-80
2022/01/24 12:28:21;;;;;;;2.60;1.45;;;9.60;72.90;;;;;;20689572;28;20424;-79
2022/01/24 12:38:21;;;;;;;2.50;1.33;;;9.60;72.90;;;;;;20747664;28;20034;-81
2022/01/24 12:48:22;;;;;;;2.30;1.20;;;9.60;73.00;;;;;;20725174;28;20042;-83
2022/01/24 12:58:33;;;;;;;2.15;1.20;;;9.60;72.90;;;;;;20655868;28;20716;-79
2022/01/24 13:08:34;;;;;;;3.17;1.48;;;9.60;72.90;;;;;;20732850;28;20038;-81
2022/01/24 13:29:03;;;;;;;4.18;1.92;;;9.60;73.00;;;;;;20661926;28;20154;-82
2022/01/24 13:39:03;;;;;;;3.28;1.77;;;9.60;73.00;;;;;;20693245;28;20034;-83
2022/01/24 13:49:15;;;;;;;7.30;2.00;;;9.60;73.10;;;;;;20692485;28;20044;-85
2022/01/24 13:59:21;;;;;;;3.30;1.65;;;9.60;73.20;;;;;;20646897;28;20045;-82
2022/01/24 14:09:22;;;;;;;3.15;1.70;;;9.60;73.20;;;;;;20657317;28;20054;-80
2022/01/24 14:19:31;;;;;;;3.63;1.90;;;9.60;73.20;;;;;;20637589;28;20038;-83
2022/01/24 14:29:34;;;;;;;3.15;1.63;;;9.70;73.30;;;;;;20636586;28;20054;-79
2022/01/24 14:39:46;;;;;;;4.38;1.52;;;9.60;73.20;;;;;;20672277;28;20033;-78
2022/01/24 14:49:46;;;;;;;2.53;1.55;;;9.60;73.20;;;;;;20690327;28;20056;-81
2022/01/24 14:59:47;;;;;;;4.03;1.83;;;9.60;73.20;;;;;;20648503;28;20042;-81
2022/01/24 15:09:47;;;;;;;2.80;1.67;;;9.60;73.30;;;;;;20652744;28;20038;-81
2022/01/24 15:30:08;;;;;;;3.65;1.55;;;9.60;73.20;;;;;;20632663;28;20535;-79
2022/01/24 15:40:11;;;;;;;2.88;1.50;;;9.60;73.20;;;;;;20637775;28;20030;-78
2022/01/24 15:50:18;;;;;;;2.40;1.45;;;9.60;73.20;;;;;;20714315;28;20050;-78
2022/01/24 16:00:21;;;;;;;2.70;1.35;;;9.60;73.10;;;;;;20667801;28;20425;-78
2022/01/24 16:10:25;;;;;;;3.33;1.60;;;9.70;73.20;;;;;;20645508;28;20038;-79
2022/01/24 16:20:50;;;;;;;4.35;1.60;;;9.60;73.10;;;;;;20670605;28;20038;-79
2022/01/24 16:30:56;;;;;;;2.53;0.90;;;9.60;73.20;;;;;;20690011;28;20034;-77
2022/01/24 16:41:08;;;;;;;4.70;2.35;;;9.60;73.10;;;;;;20685662;28;20477;-78
2022/01/24 16:51:11;;;;;;;3.25;1.58;;;9.60;73.10;;;;;;20677542;28;20042;-77
2022/01/24 17:01:12;;;;;;;2.35;1.30;;;9.70;73.20;;;;;;20670469;28;20368;-76
2022/01/24 17:11:13;;;;;;;2.63;1.20;;;9.60;73.20;;;;;;20638107;28;20042;-77
2022/01/24 17:21:15;;;;;;;2.10;1.25;;;9.60;73.20;;;;;;20637167;28;20290;-80
2022/01/24 17:31:17;;;;;;;2.63;1.25;;;9.60;73.50;;;;;;20623139;28;20132;-87
2022/01/24 17:41:19;;;;;;;3.70;1.52;;;9.80;73.50;;;;;;20671265;28;20416;-86
2022/01/24 17:51:19;;;;;;;2.72;1.80;;;9.60;73.20;;;;;;20685667;28;20065;-83
2022/01/24 18:01:20;;;;;;;3.25;1.60;;;9.60;73.10;;;;;;20662302;28;20035;-85
2022/01/24 18:11:20;;;;;;;4.45;1.40;;;9.60;73.10;;;;;;20652106;28;20440;-86
2022/01/24 18:21:22;;;;;;;2.90;1.50;;;9.60;73.10;;;;;;20669199;28;20022;-87
2022/01/24 18:31:23;;;;;;;1.80;1.30;;;9.60;73.70;;;;;;20675783;28;20049;-88
2022/01/24 18:41:26;;;;;;;2.80;1.40;;;9.60;73.00;;;;;;20675657;28;20034;-87
2022/01/24 18:51:26;;;;;;;2.50;1.27;;;9.60;73.00;;;;;;20638254;28;20043;-83
2022/01/24 19:01:27;;;;;;;2.88;1.20;;;9.70;73.00;;;;;;20636086;28;20058;-83
2022/01/24 19:11:28;;;;;;;2.53;1.02;;;9.60;72.90;;;;;;20647058;28;20088;-82
2022/01/24 19:31:48;;;;;;;2.00;1.55;;;9.60;72.80;;;;;;20650540;28;20034;-80
2022/01/24 19:41:53;;;;;;;3.17;1.45;;;9.70;72.90;;;;;;20614697;28;20425;-82
2022/01/24 19:51:57;;;;;;;2.00;1.50;;;9.60;72.80;;;;;;20659713;28;20054;-81
2022/01/24 20:01:58;;;;;;;2.55;1.48;;;9.60;72.80;;;;;;20645876;28;20472;-82
2022/01/24 20:11:59;;;;;;;2.13;1.20;;;9.60;72.70;;;;;;20664188;28;20039;-76
2022/01/24 20:22:02;;;;;;;2.40;1.20;;;9.60;72.70;;;;;;20672131;28;20361;-83
2022/01/24 20:32:03;;;;;;;2.10;1.25;;;9.60;72.70;;;;;;20674956;28;20313;-88
2022/01/24 20:42:09;;;;;;;2.50;1.63;;;9.60;72.70;;;;;;20672302;28;20548;-80
2022/01/24 20:52:09;;;;;;;1.88;1.25;;;9.60;72.60;;;;;;20657952;28;20447;-78
2022/01/24 21:02:10;;;;;;;3.33;2.05;;;9.60;72.60;;;;;;20635664;28;20166;-78
2022/01/24 21:12:19;;;;;;;2.75;1.80;;;9.60;72.60;;;;;;20636016;28;20038;-79
2022/01/24 21:22:20;;;;;;;4.50;1.60;;;9.60;72.60;;;;;;20653879;28;20460;-77
2022/01/24 21:32:20;;;;;;;2.47;1.40;;;9.60;72.60;;;;;;20652938;28;20058;-78
2022/01/24 21:42:21;;;;;;;4.30;1.73;;;9.60;72.60;;;;;;20652499;28;20058;-78
2022/01/24 21:52:21;;;;;;;3.20;1.90;;;9.60;72.50;;;;;;20651690;28;20306;-79
2022/01/24 22:02:22;;;;;;;4.28;2.10;;;9.60;72.50;;;;;;20650744;28;20724;-77
2022/01/24 22:12:22;;;;;;;4.25;2.42;;;9.50;72.40;;;;;;20649760;28;20477;-78
2022/01/24 22:32:42;;;;;;;4.93;2.33;;;9.50;72.40;;;;;;20650911;28;20126;-79
2022/01/24 22:42:44;;;;;;;3.92;2.30;;;9.70;72.40;;;;;;20648298;28;20034;-79
2022/01/24 22:52:44;;;;;;;5.63;3.07;;;9.50;72.30;;;;;;20631238;28;20053;-80
2022/01/24 23:02:45;;;;;;;7.32;3.67;;;9.50;72.20;;;;;;20630667;28;20372;-79
2022/01/24 23:12:45;;;;;;;4.38;2.58;;;9.60;72.20;;;;;;20630557;28;20042;-78
2022/01/24 23:22:53;;;;;;;3.20;1.88;;;9.50;72.10;;;;;;20652728;28;20030;-78
2022/01/24 23:33:05;;;;;;;5.68;2.28;;;9.50;72.00;;;;;;20663324;28;20050;-80
2022/01/24 23:43:08;;;;;;;2.92;1.70;;;9.50;72.00;;;;;;20662934;28;20041;-79
2022/01/24 23:53:09;;;;;;;4.68;2.55;;;9.60;72.00;;;;;;20644668;28;20503;-79
